createdAt,value
2019-04-11T00:01:58.602Z,97940.86
2019-04-11T00:04:30.364Z,97938.25
2019-04-11T00:07:01.749Z,97943.84
2019-04-11T00:09:52.545Z,97936.48
2019-04-11T00:12:24.317Z,97935.30
2019-04-11T00:14:55.975Z,97934.34
2019-04-11T00:17:28.062Z,97935.41
2019-04-11T00:20:00.218Z,97933.88
2019-04-11T00:22:31.668Z,97931.97
2019-04-11T00:25:03.197Z,97933.03
2019-04-11T00:27:35.114Z,97935.04
2019-04-11T00:30:10.100Z,97927.58
2019-04-11T00:32:41.686Z,97927.22
2019-04-11T00:35:13.480Z,97927.01
2019-04-11T00:37:45.458Z,97928.31
2019-04-11T00:40:18.836Z,97924.14
2019-04-11T00:42:51.159Z,97922.83
2019-04-11T00:45:24.820Z,97918.69
2019-04-11T00:47:57.465Z,97922.00
2019-04-11T00:50:31.525Z,97924.61
2019-04-11T00:53:03.563Z,97923.30
2019-04-11T00:55:36.169Z,97924.27
2019-04-11T00:58:07.558Z,97925.58
2019-04-11T01:00:39.853Z,97923.44
2019-04-11T01:03:11.754Z,97928.19
2019-04-11T01:05:43.263Z,97925.91
2019-04-11T01:08:15.652Z,97918.45
2019-04-11T01:10:47.805Z,97922.57
2019-04-11T01:13:19.379Z,97922.47
2019-04-11T01:16:03.101Z,97917.58
2019-04-11T01:18:34.380Z,97920.43
2019-04-11T01:21:06.254Z,97916.05
2019-04-11T01:23:37.827Z,97911.43
2019-04-11T01:26:09.342Z,97908.45
2019-04-11T01:28:40.782Z,97906.45
2019-04-11T01:31:13.513Z,97910.73
2019-04-11T01:33:46.245Z,97912.03
2019-04-11T01:36:18.544Z,97913.94
2019-04-11T01:38:54.733Z,97906.22
2019-04-11T01:41:26.705Z,97903.03
2019-04-11T01:44:02.205Z,97907.41
2019-04-11T01:46:31.954Z,97910.16
2019-04-11T01:49:10.184Z,97899.36
2019-04-11T01:51:42.176Z,97897.61
2019-04-11T01:54:13.840Z,97897.52
2019-04-11T01:56:45.714Z,97905.70
2019-04-11T01:59:17.416Z,97909.04
2019-04-11T02:02:07.532Z,97905.36
2019-04-11T02:04:52.299Z,97905.59
2019-04-11T02:07:24.730Z,97903.09
2019-04-11T02:09:56.772Z,97911.75
2019-04-11T02:12:29.032Z,97905.23
2019-04-11T02:15:00.405Z,97906.77
2019-04-11T02:17:32.580Z,97901.06
2019-04-11T02:20:06.980Z,97898.69
2019-04-11T02:22:57.146Z,97902.83
2019-04-11T02:25:47.291Z,97896.91
2019-04-11T02:28:20.289Z,97900.95
2019-04-11T02:30:55.711Z,97897.38
2019-04-11T02:33:27.149Z,97899.75
2019-04-11T02:35:58.574Z,97895.94
2019-04-11T02:38:30.501Z,97895.24
2019-04-11T02:41:03.503Z,97897.84
2019-04-11T02:43:38.205Z,97894.77
2019-04-11T02:46:19.857Z,97895.51
2019-04-11T02:48:42.650Z,97889.48
2019-04-11T02:51:15.047Z,97888.05
2019-04-11T02:53:47.237Z,97885.80
2019-04-11T02:56:19.330Z,97887.00
2019-04-11T02:58:52.273Z,97892.81
2019-04-11T03:01:26.124Z,97891.63
2019-04-11T03:03:59.034Z,97890.31
2019-04-11T03:06:30.999Z,97893.62
2019-04-11T03:09:02.763Z,97891.75
2019-04-11T03:11:34.685Z,97886.07
2019-04-11T03:14:07.615Z,97888.07
2019-04-11T03:16:53.449Z,97888.07
2019-04-11T03:19:29.621Z,97891.18
2019-04-11T03:21:47.274Z,97884.30
2019-04-11T03:24:19.272Z,97884.50
2019-04-11T03:26:52.622Z,97886.53
2019-04-11T03:29:26.516Z,97882.52
2019-04-11T03:32:51.288Z,97884.06
2019-04-11T03:35:20.926Z,97885.36
2019-04-11T03:37:26.080Z,97885.47
2019-04-11T03:39:57.443Z,97884.89
2019-04-11T03:42:29.615Z,97888.34
2019-04-11T03:44:50.195Z,97881.58
2019-04-11T03:47:34.814Z,97885.86
2019-04-11T03:50:05.515Z,97884.30
2019-04-11T03:52:30.539Z,97882.39
2019-04-11T03:55:05.927Z,97888.34
2019-04-11T03:57:39.660Z,97893.08
2019-04-11T04:00:14.245Z,97892.74
2019-04-11T04:02:55.279Z,97892.84
2019-04-11T04:05:30.152Z,97890.73
2019-04-11T04:08:06.112Z,97889.63
2019-04-11T04:10:39.640Z,97893.20
2019-04-11T04:13:16.933Z,97885.15
2019-04-11T04:16:19.757Z,97890.50
2019-04-11T04:18:58.798Z,97886.92
2019-04-11T04:21:51.130Z,97886.59
2019-04-11T04:24:32.790Z,97888.92
2019-04-11T04:27:05.200Z,97886.69
2019-04-11T04:29:38.111Z,97888.22
2019-04-11T04:32:12.158Z,97883.27
2019-04-11T04:34:48.105Z,97884.20
2019-04-11T04:37:26.736Z,97883.72
2019-04-11T04:40:23.827Z,97887.61
2019-04-11T04:42:49.896Z,97891.28
2019-04-11T04:45:21.442Z,97896.63
2019-04-11T04:47:59.223Z,97902.44
2019-04-11T04:50:30.947Z,97894.52
2019-04-11T04:53:05.304Z,97899.13
2019-04-11T04:55:41.221Z,97893.31
2019-04-11T04:58:15.773Z,97899.00
2019-04-11T05:00:53.800Z,97903.72
2019-04-11T05:03:29.793Z,97903.84
2019-04-11T05:06:11.990Z,97907.39
2019-04-11T05:08:49.198Z,97908.93
2019-04-11T05:11:23.971Z,97908.00
2019-04-11T05:14:00.750Z,97912.25
2019-04-11T05:16:37.553Z,97905.81
2019-04-11T05:19:13.312Z,97902.02
2019-04-11T05:21:47.852Z,97905.77
2019-04-11T05:24:24.177Z,97908.15
2019-04-11T05:26:57.852Z,97909.79
2019-04-11T05:29:34.014Z,97905.31
2019-04-11T05:32:07.668Z,97905.78
2019-04-11T05:34:42.123Z,97905.04
2019-04-11T05:37:17.156Z,97913.54
2019-04-11T05:39:50.539Z,97914.14
2019-04-11T05:42:26.512Z,97921.09
2019-04-11T05:44:59.257Z,97918.98
2019-04-11T05:47:35.509Z,97916.58
2019-04-11T05:50:28.356Z,97914.44
2019-04-11T05:53:05.559Z,97914.44
2019-04-11T05:55:45.789Z,97918.08
2019-04-11T05:58:24.165Z,97920.59
2019-04-11T06:01:14.472Z,97918.31
2019-04-11T06:03:50.452Z,97917.01
2019-04-11T06:06:42.934Z,97919.52
2019-04-11T06:09:23.406Z,97921.48
2019-04-11T06:12:03.335Z,97917.53
2019-04-11T06:14:47.187Z,97915.56
2019-04-11T06:17:23.798Z,97922.97
2019-04-11T06:20:27.711Z,97924.86
2019-04-11T06:23:19.322Z,97926.95
2019-04-11T06:26:14.706Z,97928.58
2019-04-11T06:28:49.460Z,97926.59
2019-04-11T06:31:42.302Z,97924.58
2019-04-11T06:34:17.652Z,97929.19
2019-04-11T06:37:09.687Z,97930.37
2019-04-11T06:39:56.695Z,97931.65
2019-04-11T06:42:39.295Z,97933.70
2019-04-11T06:45:31.427Z,97938.02
2019-04-11T06:48:22.320Z,97942.85
2019-04-11T06:51:17.882Z,97935.80
2019-04-11T06:54:11.082Z,97936.46
2019-04-11T06:56:48.234Z,97936.00
2019-04-11T06:59:38.689Z,97930.90
2019-04-11T07:02:19.723Z,97930.56
2019-04-11T07:04:55.051Z,97936.84
2019-04-11T07:07:34.245Z,97942.06
2019-04-11T07:10:11.730Z,97942.69
2019-04-11T07:13:12.294Z,97946.42
2019-04-11T07:15:52.856Z,97946.13
2019-04-11T07:18:35.851Z,97950.44
2019-04-11T07:21:13.229Z,97948.45
2019-04-11T07:24:05.384Z,97949.43
2019-04-11T07:26:45.859Z,97958.37
2019-04-11T07:29:51.952Z,97957.74
2019-04-11T07:32:27.896Z,97966.16
2019-04-11T07:35:19.299Z,97962.66
2019-04-11T07:38:03.129Z,97965.59
2019-04-11T07:41:06.607Z,97968.09
2019-04-11T07:43:58.543Z,97967.34
2019-04-11T07:46:45.165Z,97971.75
2019-04-11T07:49:24.371Z,97978.98
2019-04-11T07:52:02.722Z,97977.31
2019-04-11T07:54:39.632Z,97975.33
2019-04-11T07:57:22.660Z,97979.19
2019-04-11T08:00:13.247Z,97978.22
2019-04-11T08:03:10.158Z,97978.84
2019-04-11T08:06:22.431Z,97979.55
2019-04-11T08:09:13.189Z,97973.69
2019-04-11T08:12:08.769Z,97986.15
2019-04-11T08:14:59.837Z,97983.38
2019-04-11T08:17:41.767Z,97989.51
2019-04-11T08:20:37.848Z,97986.33
2019-04-11T08:23:16.552Z,97994.63
2019-04-11T08:26:16.510Z,97991.95
2019-04-11T08:28:59.614Z,97997.84
2019-04-11T08:31:54.856Z,97998.74
2019-04-11T08:34:27.058Z,97997.67
2019-04-11T08:37:27.481Z,97996.94
2019-04-11T08:39:59.771Z,98003.65
2019-04-11T08:42:50.885Z,98006.45
2019-04-11T08:45:23.763Z,98002.25
2019-04-11T08:47:58.607Z,98003.38
2019-04-11T08:50:32.884Z,98001.88
2019-04-11T08:53:22.138Z,98005.15
2019-04-11T08:56:01.918Z,98003.86
2019-04-11T08:59:04.926Z,98008.63
2019-04-11T09:01:36.786Z,98013.10
2019-04-11T09:04:23.989Z,98009.72
2019-04-11T09:06:56.783Z,98010.94
2019-04-11T09:09:47.382Z,98010.72
2019-04-11T09:12:20.484Z,98017.36
2019-04-11T09:15:10.765Z,98018.42
2019-04-11T09:17:58.928Z,98016.32
2019-04-11T09:20:40.258Z,98022.36
2019-04-11T09:23:14.379Z,98016.99
2019-04-11T09:26:03.927Z,98027.23
2019-04-11T09:28:39.766Z,98026.59
2019-04-11T09:31:33.781Z,98022.80
2019-04-11T09:34:23.882Z,98023.27
2019-04-11T09:37:17.655Z,98024.43
2019-04-11T09:40:23.839Z,98026.19
2019-04-11T09:43:24.373Z,98031.23
2019-04-11T09:46:18.947Z,98032.55
2019-04-11T09:49:27.020Z,98023.67
2019-04-11T09:52:04.335Z,98022.16
2019-04-11T09:55:04.500Z,98017.96
2019-04-11T09:57:41.979Z,98017.20
2019-04-11T10:00:43.112Z,98007.47
2019-04-11T10:03:25.625Z,98008.19
2019-04-11T10:06:15.906Z,98012.32
2019-04-11T10:08:52.729Z,98005.27
2019-04-11T10:11:56.781Z,98012.55
2019-04-11T10:14:31.520Z,98009.92
2019-04-11T10:17:24.517Z,98011.40
2019-04-11T10:19:58.758Z,98004.47
2019-04-11T10:22:49.036Z,98014.67
2019-04-11T10:25:25.234Z,98003.01
2019-04-11T10:28:31.440Z,98010.61
2019-04-11T10:31:22.211Z,98009.23
2019-04-11T10:34:13.193Z,98007.47
2019-04-11T10:36:49.687Z,98011.42
2019-04-11T10:39:55.458Z,98005.97
2019-04-11T10:42:28.727Z,98005.81
2019-04-11T10:45:20.669Z,98005.01
2019-04-11T10:47:55.950Z,98009.45
2019-04-11T10:50:45.129Z,98003.11
2019-04-11T10:53:17.979Z,98008.60
2019-04-11T10:56:08.640Z,98004.87
2019-04-11T10:58:51.115Z,98000.22
2019-04-11T11:01:42.209Z,98000.05
2019-04-11T11:04:27.617Z,97998.34
2019-04-11T11:07:13.116Z,97988.59
2019-04-11T11:09:56.739Z,97985.33
2019-04-11T11:12:43.623Z,97990.33
2019-04-11T11:15:31.558Z,97992.14
2019-04-11T11:18:49.110Z,97993.05
2019-04-11T11:21:06.913Z,97990.81
2019-04-11T11:23:56.940Z,97986.31
2019-04-11T11:26:35.487Z,97981.72
2019-04-11T11:29:45.333Z,97975.64
2019-04-11T11:32:33.639Z,97981.45
2019-04-11T11:35:37.593Z,97988.28
2019-04-11T11:38:19.864Z,97983.18
2019-04-11T11:41:10.504Z,97979.42
2019-04-11T11:43:43.345Z,97985.05
2019-04-11T11:46:40.422Z,97983.05
2019-04-11T11:49:35.231Z,97982.72
2019-04-11T11:52:09.567Z,97973.03
2019-04-11T11:54:46.173Z,97970.19
2019-04-11T11:57:40.338Z,97973.56
2019-04-11T12:00:23.455Z,97977.77
2019-04-11T12:03:05.311Z,97966.31
2019-04-11T12:06:03.113Z,97962.48
2019-04-11T12:09:00.349Z,97963.56
2019-04-11T12:11:32.362Z,97958.64
2019-04-11T12:14:43.443Z,97953.83
2019-04-11T12:17:52.494Z,97952.94
2019-04-11T12:20:31.330Z,97958.92
2019-04-11T12:23:07.288Z,97955.36
2019-04-11T12:25:47.147Z,97949.58
2019-04-11T12:28:38.453Z,97945.70
2019-04-11T12:31:11.355Z,97943.42
2019-04-11T12:34:20.210Z,97934.08
2019-04-11T12:36:53.319Z,97936.84
2019-04-11T12:39:44.092Z,97931.38
2019-04-11T12:42:25.675Z,97925.90
2019-04-11T12:45:28.579Z,97925.70
2019-04-11T12:48:01.978Z,97925.61
2019-04-11T12:50:51.716Z,97918.06
2019-04-11T12:53:34.124Z,97920.71
2019-04-11T12:56:28.748Z,97916.00
2019-04-11T12:59:03.588Z,97913.25
2019-04-11T13:01:53.370Z,97913.41
2019-04-11T13:04:50.413Z,97913.50
2019-04-11T13:07:51.696Z,97901.97
2019-04-11T13:10:26.732Z,97895.96
2019-04-11T13:13:20.075Z,97895.16
2019-04-11T13:16:12.205Z,97898.09
2019-04-11T13:19:02.456Z,97897.99
2019-04-11T13:21:57.436Z,97895.84
2019-04-11T13:24:59.889Z,97891.77
2019-04-11T13:27:39.227Z,97890.38
2019-04-11T13:30:29.406Z,97894.01
2019-04-11T13:33:04.561Z,97892.66
2019-04-11T13:35:55.549Z,97891.09
2019-04-11T13:38:46.559Z,97896.18
2019-04-11T13:41:35.952Z,97895.83
2019-04-11T13:44:15.140Z,97899.16
2019-04-11T13:47:02.538Z,97894.88
2019-04-11T13:49:48.749Z,97888.75
2019-04-11T13:52:39.560Z,97886.48
2019-04-11T13:55:32.062Z,97881.73
2019-04-11T13:58:18.856Z,97881.08
2019-04-11T14:01:01.985Z,97881.73
2019-04-11T14:03:58.820Z,97873.97
2019-04-11T14:06:40.829Z,97876.98
2019-04-11T14:09:38.798Z,97876.06
2019-04-11T14:12:15.136Z,97877.61
2019-04-11T14:15:06.007Z,97872.41
2019-04-11T14:17:52.358Z,97875.48
2019-04-11T14:20:58.118Z,97870.48
2019-04-11T14:23:37.960Z,97871.19
2019-04-11T14:26:31.998Z,97876.95
2019-04-11T14:29:19.017Z,97865.05
2019-04-11T14:32:00.109Z,97858.95
2019-04-11T14:34:45.099Z,97853.67
2019-04-11T14:37:38.937Z,97861.98
2019-04-11T14:40:41.952Z,97869.42
2019-04-11T14:43:43.767Z,97868.76
2019-04-11T14:46:36.546Z,97872.14
2019-04-11T14:49:13.662Z,97879.92
2019-04-11T14:52:25.324Z,97881.17
2019-04-11T14:55:00.266Z,97876.44
2019-04-11T14:57:55.907Z,97876.47
2019-04-11T15:00:37.058Z,97892.98
2019-04-11T15:03:36.663Z,97891.23
2019-04-11T15:06:31.448Z,97884.81
2019-04-11T15:09:28.862Z,97886.67
2019-04-11T15:12:10.770Z,97894.23
2019-04-11T15:15:20.367Z,97895.64
2019-04-11T15:17:57.947Z,97898.20
2019-04-11T15:20:54.688Z,97896.30
2019-04-11T15:23:25.551Z,97898.88
2019-04-11T15:26:16.361Z,97906.81
2019-04-11T15:29:07.167Z,97908.52
2019-04-11T15:32:06.832Z,97910.80
2019-04-11T15:34:46.959Z,97917.83
2019-04-11T15:37:36.406Z,97924.52
2019-04-11T15:40:12.212Z,97928.25
2019-04-11T15:43:05.994Z,97929.56
2019-04-11T15:45:42.375Z,97931.77
2019-04-11T15:48:40.313Z,97937.27
2019-04-11T15:51:46.075Z,97938.44
2019-04-11T15:54:43.141Z,97946.86
2019-04-11T15:57:32.559Z,97954.09
2019-04-11T16:00:27.081Z,97951.54
2019-04-11T16:03:18.190Z,97956.60
2019-04-11T16:06:11.726Z,97954.28
2019-04-11T16:08:46.364Z,97950.14
2019-04-11T16:11:52.510Z,97948.83
2019-04-11T16:14:32.636Z,97953.92
2019-04-11T16:17:36.069Z,97953.17
2019-04-11T16:20:22.120Z,97958.91
2019-04-11T16:23:18.788Z,97952.66
2019-04-11T16:25:55.272Z,97960.84
2019-04-11T16:28:56.720Z,97962.57
2019-04-11T16:31:40.134Z,97963.67
2019-04-11T16:34:55.756Z,97963.42
2019-04-11T16:37:27.468Z,97961.54
2019-04-11T16:40:29.242Z,97962.24
2019-04-11T16:43:07.661Z,97959.27
2019-04-11T16:45:57.424Z,97959.84
2019-04-11T16:48:31.348Z,97957.61
2019-04-11T16:51:05.808Z,97959.97
2019-04-11T16:53:38.162Z,97957.48
2019-04-11T16:56:12.801Z,97958.53
2019-04-11T16:58:50.091Z,97960.16
2019-04-11T17:01:23.855Z,97960.72
2019-04-11T17:03:56.898Z,97957.41
2019-04-11T17:06:45.725Z,97963.34
2019-04-11T17:09:31.230Z,97967.14
2019-04-11T17:12:03.484Z,97969.33
2019-04-11T17:14:37.531Z,97975.48
2019-04-11T17:17:15.327Z,97979.67
2019-04-11T17:19:45.508Z,97984.33
2019-04-11T17:22:18.888Z,97981.97
2019-04-11T17:24:51.243Z,97987.35
2019-04-11T17:27:23.716Z,97989.20
2019-04-11T17:29:56.371Z,97991.39
2019-04-11T17:32:28.757Z,97990.63
2019-04-11T17:35:02.044Z,97996.41
2019-04-11T17:37:34.907Z,97998.25
2019-04-11T17:40:07.703Z,98003.77
2019-04-11T17:42:39.590Z,98006.56
2019-04-11T17:45:11.727Z,98008.41
2019-04-11T17:47:44.812Z,98004.73
2019-04-11T17:50:18.351Z,98013.81
2019-04-11T17:52:50.333Z,98016.20
2019-04-11T17:55:24.552Z,98014.79
2019-04-11T17:57:57.662Z,98016.20
2019-04-11T18:00:32.719Z,98022.19
2019-04-11T18:03:05.902Z,98027.81
2019-04-11T18:05:38.028Z,98032.02
2019-04-11T18:08:10.061Z,98032.84
2019-04-11T18:10:42.219Z,98036.80
2019-04-11T18:13:14.046Z,98035.77
2019-04-11T18:15:45.904Z,98038.40
2019-04-11T18:18:17.747Z,98045.22
2019-04-11T18:20:52.033Z,98045.73
2019-04-11T18:23:24.398Z,98048.73
2019-04-11T18:25:56.669Z,98047.80
2019-04-11T18:28:29.823Z,98051.97
2019-04-11T18:31:02.326Z,98057.47
2019-04-11T18:33:36.603Z,98059.77
2019-04-11T18:36:09.645Z,98059.81
2019-04-11T18:38:41.777Z,98060.14
2019-04-11T18:41:14.026Z,98064.58
2019-04-11T18:43:47.126Z,98070.81
2019-04-11T18:46:20.235Z,98073.47
2019-04-11T18:48:54.885Z,98070.76
2019-04-11T18:51:27.344Z,98077.52
2019-04-11T18:53:59.388Z,98084.05
2019-04-11T18:56:31.853Z,98089.88
2019-04-11T18:59:04.379Z,98090.81
2019-04-11T19:01:39.121Z,98089.75
2019-04-11T19:04:12.011Z,98094.73
2019-04-11T19:06:44.010Z,98093.09
2019-04-11T19:09:22.102Z,98098.05
2019-04-11T19:11:54.706Z,98100.19
2019-04-11T19:14:31.836Z,98099.25
2019-04-11T19:17:04.402Z,98101.99
2019-04-11T19:19:48.701Z,98102.86
2019-04-11T19:22:32.261Z,98106.77
2019-04-11T19:24:54.372Z,98119.10
2019-04-11T19:27:26.935Z,98118.94
2019-04-11T19:30:02.556Z,98117.30
2019-04-11T19:32:35.131Z,98123.93
2019-04-11T19:35:17.228Z,98119.20
2019-04-11T19:37:50.652Z,98122.02
2019-04-11T19:40:30.340Z,98124.53
2019-04-11T19:43:03.516Z,98120.48
2019-04-11T19:45:40.905Z,98121.66
2019-04-11T19:48:15.254Z,98123.41
2019-04-11T19:50:47.817Z,98128.26
2019-04-11T19:53:20.497Z,98128.86
2019-04-11T19:56:18.841Z,98132.52
2019-04-11T19:58:51.749Z,98127.75
2019-04-11T20:01:25.863Z,98127.62
2019-04-11T20:03:58.305Z,98133.59
2019-04-11T20:06:32.350Z,98129.09
2019-04-11T20:09:06.479Z,98136.77
2019-04-11T20:11:39.109Z,98128.82
2019-04-11T20:14:16.513Z,98127.64
2019-04-11T20:16:51.945Z,98120.77
2019-04-11T20:19:27.124Z,98128.97
2019-04-11T20:21:59.171Z,98125.39
2019-04-11T20:24:31.935Z,98131.66
2019-04-11T20:27:04.746Z,98126.78
2019-04-11T20:29:37.379Z,98128.59
2019-04-11T20:32:12.978Z,98127.02
2019-04-11T20:34:45.688Z,98125.81
2019-04-11T20:37:18.203Z,98128.19
2019-04-11T20:39:50.380Z,98122.36
2019-04-11T20:42:26.667Z,98132.34
2019-04-11T20:45:02.144Z,98127.22
2019-04-11T20:47:43.194Z,98135.33
2019-04-11T20:50:16.162Z,98127.95
2019-04-11T20:52:54.478Z,98138.88
2019-04-11T20:55:26.739Z,98136.53
2019-04-11T20:58:09.816Z,98132.73
2019-04-11T21:00:50.164Z,98135.81
2019-04-11T21:03:14.722Z,98128.97
2019-04-11T21:05:47.209Z,98131.83
2019-04-11T21:08:22.046Z,98129.24
2019-04-11T21:10:55.495Z,98137.30
2019-04-11T21:13:30.641Z,98129.25
2019-04-11T21:16:03.803Z,98125.80
2019-04-11T21:18:42.121Z,98129.87
2019-04-11T21:21:14.145Z,98135.66
2019-04-11T21:23:52.107Z,98139.02
2019-04-11T21:26:24.201Z,98137.22
2019-04-11T21:29:00.291Z,98133.91
2019-04-11T21:31:32.576Z,98139.48
2019-04-11T21:34:12.030Z,98133.20
2019-04-11T21:36:44.029Z,98138.76
2019-04-11T21:39:25.223Z,98140.19
2019-04-11T21:41:57.477Z,98140.78
2019-04-11T21:44:37.114Z,98136.38
2019-04-11T21:47:09.226Z,98134.95
2019-04-11T21:49:48.460Z,98139.81
2019-04-11T21:52:20.492Z,98134.35
2019-04-11T21:54:55.462Z,98138.39
2019-04-11T21:57:27.976Z,98138.98
2019-04-11T22:00:14.260Z,98143.70
2019-04-11T22:02:46.317Z,98140.38
2019-04-11T22:05:18.179Z,98137.77
2019-04-11T22:07:50.687Z,98137.52
2019-04-11T22:10:30.371Z,98140.25
2019-04-11T22:13:09.763Z,98136.13
2019-04-11T22:15:42.536Z,98134.45
2019-04-11T22:18:16.780Z,98143.95
2019-04-11T22:20:48.786Z,98138.36
2019-04-11T22:23:21.103Z,98140.25
2019-04-11T22:25:56.031Z,98143.95
2019-04-11T22:28:28.617Z,98140.50
2019-04-11T22:31:09.867Z,98144.29
2019-04-11T22:34:00.645Z,98141.90
2019-04-11T22:36:33.652Z,98139.88
2019-04-11T22:39:08.541Z,98145.59
2019-04-11T22:41:41.375Z,98144.75
2019-04-11T22:44:14.177Z,98146.89
2019-04-11T22:46:47.030Z,98153.91
2019-04-11T22:49:19.304Z,98149.53
2019-04-11T22:51:51.804Z,98154.03
2019-04-11T22:54:23.924Z,98149.87
2019-04-11T22:56:56.169Z,98157.45
2019-04-11T22:59:28.145Z,98151.89
2019-04-11T23:02:16.866Z,98151.77
2019-04-11T23:04:47.078Z,98144.78
2019-04-11T23:07:22.787Z,98143.61
2019-04-11T23:09:55.570Z,98144.66
2019-04-11T23:12:30.370Z,98144.66
2019-04-11T23:15:03.332Z,98143.48
2019-04-11T23:17:39.413Z,98143.23
2019-04-11T23:20:14.266Z,98145.97
2019-04-11T23:22:56.429Z,98145.12
2019-04-11T23:25:28.677Z,98147.02
2019-04-11T23:28:00.462Z,98149.84
2019-04-11T23:30:32.369Z,98148.29
2019-04-11T23:33:10.108Z,98150.43
2019-04-11T23:35:42.783Z,98146.73
2019-04-11T23:38:23.859Z,98146.47
2019-04-11T23:40:55.972Z,98151.09
2019-04-11T23:43:30.764Z,98146.21
2019-04-11T23:46:03.013Z,98152.47
2019-04-11T23:48:38.950Z,98144.14
2019-04-11T23:51:11.564Z,98147.55
2019-04-11T23:53:49.617Z,98142.33
2019-04-11T23:56:22.305Z,98139.14
2019-04-11T23:59:01.841Z,98141.91
